Time;durP1;ratioP1;P1;durP2;ratioP2;P2;SDS_P1;SDS_P2;PMS_P1;PMS_P2;Temp;Humidity;BMP_temperature;BMP_pressure;BME280_temperature;BME280_humidity;BME280_pressure;Samples;Min_cycle;Max_cycle;Signal;HPM_P1;HPM_P2
2022/07/10 00:01:39;;;;;;;1.33;1.23;;;21.80;66.60;22.50;97000.00;;;;5034214;28;20552;-83
2022/07/10 00:04:08;;;;;;;2.30;1.27;;;21.80;66.60;22.50;97006.00;;;;5031256;28;20568;-84
2022/07/10 00:06:36;;;;;;;1.70;1.60;;;21.80;66.60;22.40;96999.00;;;;5034028;28;20256;-83
2022/07/10 00:09:03;;;;;;;1.73;1.60;;;21.80;66.30;22.40;97004.00;;;;5039864;28;20231;-82
2022/07/10 00:11:30;;;;;;;1.70;1.60;;;21.70;66.10;22.40;97010.00;;;;5039617;28;20640;-83
2022/07/10 00:13:57;;;;;;;1.70;1.60;;;21.70;65.90;22.30;97015.00;;;;5043343;28;20193;-83
2022/07/10 00:16:28;;;;;;;1.67;1.57;;;21.70;65.70;22.30;97018.00;;;;5033876;28;20201;-83
2022/07/10 00:18:55;;;;;;;1.77;1.67;;;21.70;65.90;22.30;97012.00;;;;5031169;28;20217;-83
2022/07/10 00:21:22;;;;;;;2.13;1.73;;;21.60;65.90;22.20;97018.00;;;;5027044;28;20194;-83
2022/07/10 00:23:50;;;;;;;2.10;1.67;;;21.60;66.20;22.20;97012.00;;;;5033519;28;20316;-83
2022/07/10 00:26:17;;;;;;;1.80;1.70;;;21.60;66.50;22.20;97002.00;;;;5030962;28;20558;-83
2022/07/10 00:28:44;;;;;;;2.13;1.93;;;21.60;66.80;22.10;97006.00;;;;5048782;28;20244;-83
2022/07/10 00:31:12;;;;;;;1.70;1.60;;;21.50;67.10;22.00;97006.00;;;;5035324;28;20288;-83
2022/07/10 00:33:40;;;;;;;2.17;1.70;;;21.50;67.50;22.00;97009.00;;;;5032964;28;20228;-83
2022/07/10 00:36:09;;;;;;;1.60;1.50;;;21.40;67.50;21.90;97008.00;;;;5030526;28;20486;-83
2022/07/10 00:38:36;;;;;;;1.70;1.60;;;21.40;67.60;21.90;97009.00;;;;5052418;28;20258;-83
2022/07/10 00:41:03;;;;;;;1.60;1.50;;;21.30;67.80;21.80;97002.00;;;;5047414;28;20220;-83
2022/07/10 00:43:30;;;;;;;1.70;1.60;;;21.30;68.20;21.80;97008.00;;;;5027929;28;20287;-83
2022/07/10 00:45:57;;;;;;;2.10;1.80;;;21.20;68.90;21.70;97007.00;;;;5042137;28;20545;-83
2022/07/10 00:48:25;;;;;;;2.07;1.97;;;21.20;69.20;21.70;97002.00;;;;5034916;28;20307;-83
2022/07/10 00:50:53;;;;;;;2.10;2.00;;;21.20;69.80;21.70;97002.00;;;;5035597;28;20616;-83
2022/07/10 00:53:21;;;;;;;2.47;2.30;;;21.10;70.60;21.60;97000.00;;;;5054948;22;20320;-86
2022/07/10 00:55:48;;;;;;;2.40;2.30;;;21.10;71.00;21.60;97002.00;;;;5039720;28;20664;-87
2022/07/10 00:58:16;;;;;;;1.90;1.80;;;21.00;71.20;21.60;96988.00;;;;5048371;28;20220;-85
2022/07/10 01:00:44;;;;;;;2.30;2.10;;;21.00;71.30;21.60;96981.00;;;;5048518;28;20275;-86
2022/07/10 01:03:11;;;;;;;1.90;1.80;;;21.00;71.40;21.50;96985.00;;;;5047371;28;20270;-86
2022/07/10 01:05:39;;;;;;;2.03;1.93;;;21.00;71.60;21.50;96977.00;;;;5023787;28;20605;-86
2022/07/10 01:08:07;;;;;;;2.00;1.90;;;20.90;71.70;21.50;96987.00;;;;5029428;28;20208;-86
2022/07/10 01:10:35;;;;;;;1.83;1.73;;;20.90;71.90;21.50;96981.00;;;;5040798;28;20209;-84
2022/07/10 01:13:03;;;;;;;2.20;2.00;;;20.90;72.80;21.50;96977.00;;;;5030300;28;20198;-86
2022/07/10 01:15:32;;;;;;;2.27;2.07;;;20.80;72.30;21.50;96976.00;;;;5043698;28;20201;-86
2022/07/10 01:18:00;;;;;;;3.43;2.33;;;20.80;72.50;21.40;96974.00;;;;5034226;28;20212;-85
2022/07/10 01:20:32;;;;;;;1.97;1.87;;;20.80;72.60;21.40;96965.00;;;;5042825;28;20231;-84
2022/07/10 01:23:01;;;;;;;1.90;1.80;;;20.70;73.30;21.40;96960.00;;;;5042789;28;20262;-86
2022/07/10 01:25:29;;;;;;;1.87;1.77;;;20.70;73.30;21.40;96963.00;;;;5036339;28;20233;-87
2022/07/10 01:27:56;;;;;;;2.17;2.07;;;20.70;73.20;21.40;96954.00;;;;5038621;28;20221;-87
2022/07/10 01:30:24;;;;;;;2.10;1.90;;;20.70;73.10;21.30;96953.00;;;;5026815;28;20206;-85
2022/07/10 01:32:52;;;;;;;2.13;1.93;;;20.70;72.90;21.30;96947.00;;;;5030270;28;20196;-85
2022/07/10 01:35:19;;;;;;;2.10;2.00;;;20.70;73.10;21.30;96948.00;;;;5032845;28;20206;-87
2022/07/10 01:37:46;;;;;;;1.83;1.73;;;20.60;73.40;21.30;96946.00;;;;5039505;28;20214;-85
2022/07/10 01:40:15;;;;;;;2.23;2.03;;;20.60;73.60;21.20;96943.00;;;;5036659;28;20668;-85
2022/07/10 01:42:43;;;;;;;2.70;1.90;;;20.60;73.70;21.20;96944.00;;;;5032769;28;20196;-86
2022/07/10 01:45:11;;;;;;;1.93;1.83;;;20.60;73.70;21.20;96943.00;;;;5036317;28;20617;-87
2022/07/10 01:47:38;;;;;;;1.87;1.77;;;20.60;73.80;21.20;96943.00;;;;5046187;28;20244;-86
2022/07/10 01:50:08;;;;;;;1.80;1.70;;;20.50;73.70;21.20;96943.00;;;;5039660;28;20201;-84
2022/07/10 01:52:35;;;;;;;1.73;1.63;;;20.50;73.80;21.10;96936.00;;;;5039473;28;20213;-86
2022/07/10 01:55:08;;;;;;;1.97;1.87;;;20.50;73.80;21.10;96940.00;;;;5032881;28;20723;-85
2022/07/10 01:57:37;;;;;;;2.33;2.13;;;20.50;73.90;21.10;96930.00;;;;5031035;28;20564;-86
2022/07/10 02:00:06;;;;;;;2.00;1.90;;;20.50;74.00;21.10;96928.00;;;;5030720;28;20725;-85
2022/07/10 02:02:33;;;;;;;2.27;2.17;;;20.50;74.00;21.10;96924.00;;;;5030584;28;20251;-86
2022/07/10 02:04:59;;;;;;;2.20;2.10;;;20.50;73.90;21.10;96928.00;;;;5038219;28;20200;-85
2022/07/10 02:07:27;;;;;;;2.17;2.07;;;20.50;73.90;21.00;96924.00;;;;5033209;28;20621;-85
2022/07/10 02:09:57;;;;;;;2.83;2.07;;;20.50;74.00;21.00;96927.00;;;;5035971;28;20196;-86
2022/07/10 02:12:24;;;;;;;2.23;2.10;;;20.40;74.10;21.00;96934.00;;;;5041888;28;20279;-86
2022/07/10 02:14:53;;;;;;;2.83;2.30;;;20.40;74.00;21.00;96928.00;;;;5042253;28;20202;-86
2022/07/10 02:17:20;;;;;;;2.10;2.00;;;20.40;74.00;21.00;96930.00;;;;5040772;28;20220;-86
2022/07/10 02:19:47;;;;;;;2.80;2.60;;;20.40;74.30;21.00;96929.00;;;;5042160;28;20300;-86
2022/07/10 02:22:14;;;;;;;2.20;2.10;;;20.40;74.30;20.90;96933.00;;;;5033643;28;20234;-86
2022/07/10 02:24:42;;;;;;;1.97;1.87;;;20.30;74.30;20.90;96928.00;;;;5033223;28;20720;-86
2022/07/10 02:27:09;;;;;;;2.27;2.07;;;20.30;74.60;20.90;96937.00;;;;5031985;28;20225;-85
2022/07/10 02:29:37;;;;;;;2.20;2.10;;;20.30;75.50;20.90;96938.00;;;;5035414;28;20698;-86
2022/07/10 02:32:07;;;;;;;3.37;2.10;;;20.30;74.70;20.90;96932.00;;;;5027302;28;20629;-86
2022/07/10 02:34:34;;;;;;;2.47;2.27;;;20.30;74.90;20.90;96935.00;;;;5032300;28;20255;-86
2022/07/10 02:37:01;;;;;;;2.27;2.17;;;20.30;74.90;20.90;96935.00;;;;5040721;28;20698;-86
2022/07/10 02:39:28;;;;;;;2.17;2.00;;;20.30;75.00;20.90;96926.00;;;;5040135;28;20557;-86
2022/07/10 02:41:56;;;;;;;3.40;2.20;;;20.30;75.00;20.90;96929.00;;;;5037521;28;20193;-85
2022/07/10 02:44:23;;;;;;;2.27;2.17;;;20.30;75.00;20.90;96936.00;;;;5027411;28;20971;-86
2022/07/10 02:46:50;;;;;;;2.80;2.40;;;20.30;75.10;20.90;96936.00;;;;5027932;28;20288;-86
2022/07/10 02:49:19;;;;;;;2.20;2.10;;;20.30;75.10;20.90;96932.00;;;;5029893;28;20201;-85
2022/07/10 02:51:46;;;;;;;2.10;2.00;;;20.30;75.00;20.90;96930.00;;;;5043411;28;20209;-86
2022/07/10 02:54:13;;;;;;;2.60;2.40;;;20.20;74.70;20.80;96924.00;;;;5042347;28;20205;-86
2022/07/10 02:56:41;;;;;;;2.47;2.00;;;20.20;75.20;20.80;96928.00;;;;5049400;28;20243;-86
2022/07/10 02:59:08;;;;;;;1.97;1.87;;;20.20;74.30;20.80;96924.00;;;;5034934;28;20193;-85
2022/07/10 03:01:35;;;;;;;1.97;1.87;;;20.20;74.20;20.80;96930.00;;;;5033147;28;20244;-86
2022/07/10 03:04:02;;;;;;;2.00;1.90;;;20.20;74.20;20.80;96922.00;;;;5033119;28;20201;-85
2022/07/10 03:06:32;;;;;;;2.00;1.90;;;20.10;74.00;20.70;96931.00;;;;5034877;28;20255;-85
2022/07/10 03:08:59;;;;;;;2.23;1.90;;;20.10;74.10;20.70;96918.00;;;;5030724;28;20203;-86
2022/07/10 03:11:27;;;;;;;2.00;1.90;;;20.10;74.00;20.70;96915.00;;;;5033032;28;21635;-85
2022/07/10 03:13:54;;;;;;;2.13;2.03;;;20.10;73.80;20.60;96923.00;;;;5038378;28;20288;-86
2022/07/10 03:16:21;;;;;;;3.63;2.17;;;20.00;73.60;20.60;96924.00;;;;5031372;28;20205;-86
2022/07/10 03:18:48;;;;;;;2.23;2.03;;;20.00;73.60;20.50;96931.00;;;;5030545;28;20224;-86
2022/07/10 03:21:16;;;;;;;2.00;1.90;;;20.00;73.70;20.50;96927.00;;;;5043516;28;20697;-86
2022/07/10 03:23:44;;;;;;;2.10;2.00;;;20.00;73.60;20.40;96926.00;;;;5036899;28;20220;-85
2022/07/10 03:26:11;;;;;;;2.43;2.23;;;19.90;73.60;20.40;96933.00;;;;5031752;28;20243;-86
2022/07/10 03:28:39;;;;;;;2.40;2.20;;;19.90;73.70;20.40;96936.00;;;;5033726;28;20246;-86
2022/07/10 03:31:06;;;;;;;1.90;1.80;;;19.90;73.80;20.40;96931.00;;;;5034622;28;20206;-86
2022/07/10 03:33:34;;;;;;;2.43;2.23;;;19.80;73.90;20.40;96927.00;;;;5034671;28;20211;-86
2022/07/10 03:36:03;;;;;;;2.40;2.20;;;19.80;74.10;20.40;96924.00;;;;5032537;28;20316;-86
2022/07/10 03:38:30;;;;;;;4.50;2.27;;;19.80;74.20;20.30;96923.00;;;;5029201;28;20601;-86
2022/07/10 03:40:58;;;;;;;2.07;1.97;;;19.80;74.30;20.30;96925.00;;;;5035664;28;20221;-85
2022/07/10 03:43:26;;;;;;;2.20;2.10;;;19.80;74.40;20.30;96928.00;;;;5041542;28;20200;-86
2022/07/10 03:45:53;;;;;;;2.30;2.13;;;19.80;74.40;20.30;96929.00;;;;5036081;28;20276;-85
2022/07/10 03:48:20;;;;;;;2.20;2.10;;;19.70;74.30;20.30;96927.00;;;;5025347;28;20253;-86
2022/07/10 03:50:51;;;;;;;2.00;1.90;;;19.70;74.30;20.30;96926.00;;;;5042614;28;20197;-85
2022/07/10 03:53:19;;;;;;;2.00;1.90;;;19.70;74.30;20.30;96927.00;;;;5043272;28;20594;-87
2022/07/10 03:55:46;;;;;;;2.13;2.03;;;19.70;74.20;20.20;96921.00;;;;5042121;28;20743;-85
2022/07/10 03:58:14;;;;;;;2.20;2.10;;;19.70;74.30;20.20;96926.00;;;;5032667;28;20213;-85
2022/07/10 04:00:42;;;;;;;1.97;1.87;;;19.70;74.30;20.20;96921.00;;;;5033520;28;20215;-85
2022/07/10 04:03:09;;;;;;;2.00;1.90;;;19.70;74.30;20.20;96917.00;;;;5038624;28;20198;-86
2022/07/10 04:05:37;;;;;;;2.20;2.10;;;19.70;74.20;20.20;96913.00;;;;5032379;28;20201;-84
2022/07/10 04:08:05;;;;;;;2.20;2.10;;;19.60;74.10;20.20;96910.00;;;;5037554;28;20698;-86
2022/07/10 04:10:33;;;;;;;2.47;2.27;;;19.60;74.20;20.20;96913.00;;;;5042104;28;20208;-86
2022/07/10 04:13:01;;;;;;;2.20;2.10;;;19.60;74.30;20.20;96909.00;;;;5042106;28;20609;-86
2022/07/10 04:15:29;;;;;;;2.50;2.40;;;19.60;74.30;20.10;96909.00;;;;5034227;28;20276;-85
2022/07/10 04:17:57;;;;;;;2.87;2.30;;;19.60;74.40;20.10;96911.00;;;;5033309;28;21626;-86
2022/07/10 04:20:24;;;;;;;2.47;2.37;;;19.60;74.30;20.10;96917.00;;;;5029555;28;20359;-85
2022/07/10 04:22:52;;;;;;;2.30;2.20;;;19.50;74.30;20.10;96908.00;;;;5026810;28;20229;-86
2022/07/10 04:25:19;;;;;;;2.33;2.13;;;19.50;74.30;20.10;96909.00;;;;5027815;28;20270;-86
2022/07/10 04:27:46;;;;;;;2.40;2.30;;;19.50;74.40;20.10;96908.00;;;;5036510;28;20216;-85
2022/07/10 04:30:13;;;;;;;2.33;2.20;;;19.50;74.40;20.00;96916.00;;;;5038684;28;20252;-86
2022/07/10 04:32:42;;;;;;;2.47;2.37;;;19.50;74.60;20.00;96920.00;;;;5042822;28;20255;-86
2022/07/10 04:35:10;;;;;;;2.57;2.37;;;19.50;74.70;20.00;96923.00;;;;5037973;28;20270;-86
2022/07/10 04:37:37;;;;;;;2.63;2.43;;;19.50;74.60;20.00;96924.00;;;;5034855;28;20296;-85
2022/07/10 04:40:06;;;;;;;2.73;2.53;;;19.50;75.30;20.00;96923.00;;;;5031274;28;20208;-84
2022/07/10 04:42:33;;;;;;;2.50;2.40;;;19.50;74.70;20.00;96925.00;;;;5049649;28;20226;-86
2022/07/10 04:45:00;;;;;;;3.20;2.37;;;19.50;74.60;20.00;96930.00;;;;5044969;28;20193;-85
2022/07/10 04:47:27;;;;;;;2.73;2.53;;;19.50;74.70;20.00;96933.00;;;;5048622;28;20212;-86
2022/07/10 04:49:56;;;;;;;2.93;2.73;;;19.50;74.70;20.00;96936.00;;;;5035224;28;20673;-85
2022/07/10 04:52:23;;;;;;;2.97;2.77;;;19.50;74.90;20.00;96937.00;;;;5032908;28;20222;-85
2022/07/10 04:54:51;;;;;;;3.03;2.80;;;19.50;74.90;20.00;96936.00;;;;5041721;28;20239;-83
2022/07/10 04:57:18;;;;;;;2.73;2.53;;;19.50;75.00;20.00;96926.00;;;;5031950;28;20957;-86
2022/07/10 04:59:45;;;;;;;2.60;2.47;;;19.50;75.00;20.00;96939.00;;;;5039852;28;20288;-85
2022/07/10 05:02:12;;;;;;;2.83;2.40;;;19.50;74.90;20.00;96928.00;;;;5034783;28;20271;-86
2022/07/10 05:04:40;;;;;;;3.17;2.97;;;19.50;75.00;20.00;96929.00;;;;5034596;28;20197;-85
2022/07/10 05:07:08;;;;;;;2.80;2.70;;;19.50;75.00;20.10;96932.00;;;;5045381;28;20419;-86
2022/07/10 05:09:35;;;;;;;3.00;2.80;;;19.50;75.20;20.10;96933.00;;;;5034108;28;20193;-85
2022/07/10 05:12:03;;;;;;;3.20;2.90;;;19.50;75.30;20.10;96928.00;;;;5028200;28;20209;-86
2022/07/10 05:14:30;;;;;;;3.13;2.93;;;19.50;75.10;20.10;96941.00;;;;5043335;28;20205;-85
2022/07/10 05:16:58;;;;;;;3.10;2.90;;;19.50;75.10;20.10;96941.00;;;;5032069;28;20218;-85
2022/07/10 05:19:25;;;;;;;2.90;2.70;;;19.50;75.10;20.10;96944.00;;;;5041445;28;20696;-86
2022/07/10 05:21:52;;;;;;;2.80;2.60;;;19.60;75.10;20.20;96945.00;;;;5032882;28;20213;-86
2022/07/10 05:24:21;;;;;;;3.00;2.80;;;19.60;75.20;20.20;96944.00;;;;5032221;28;20240;-86
2022/07/10 05:26:48;;;;;;;2.87;2.67;;;19.60;75.20;20.20;96954.00;;;;5036762;28;20653;-86
2022/07/10 05:29:15;;;;;;;3.47;3.07;;;19.60;75.10;20.20;96952.00;;;;5048069;28;20607;-86
2022/07/10 05:31:42;;;;;;;3.43;3.13;;;19.70;75.00;20.30;96952.00;;;;5048331;28;20205;-85
2022/07/10 05:34:10;;;;;;;3.07;2.80;;;19.70;75.00;20.30;96947.00;;;;5031543;28;20235;-86
2022/07/10 05:36:37;;;;;;;3.10;2.90;;;19.70;75.00;20.30;96953.00;;;;5034929;28;20756;-86
2022/07/10 05:39:04;;;;;;;3.27;3.07;;;19.70;75.00;20.30;96946.00;;;;5036018;28;20244;-86
2022/07/10 05:41:33;;;;;;;3.70;3.40;;;19.80;74.90;20.30;96960.00;;;;5035517;28;20231;-86
2022/07/10 05:44:01;;;;;;;3.47;3.27;;;19.80;74.60;20.30;96953.00;;;;5033053;28;20669;-85
2022/07/10 05:46:28;;;;;;;3.70;3.50;;;19.80;74.40;20.30;96950.00;;;;5019773;28;20261;-86
2022/07/10 05:48:55;;;;;;;4.10;3.80;;;19.80;74.30;20.30;96959.00;;;;5038866;28;20223;-86
2022/07/10 05:51:22;;;;;;;4.03;3.77;;;19.80;74.30;20.30;96961.00;;;;5032912;28;20292;-85
2022/07/10 05:53:50;;;;;;;3.80;3.60;;;19.80;74.40;20.40;96963.00;;;;5027545;28;20209;-86
2022/07/10 05:56:17;;;;;;;3.80;3.60;;;19.80;74.40;20.40;96967.00;;;;5037827;28;20193;-86
2022/07/10 05:58:46;;;;;;;4.00;3.70;;;19.80;74.40;20.40;96958.00;;;;5044731;28;20282;-86
2022/07/10 06:01:13;;;;;;;3.73;3.53;;;19.80;74.50;20.40;96960.00;;;;5030979;28;20237;-86
2022/07/10 06:03:40;;;;;;;3.93;3.73;;;19.80;74.50;20.50;96965.00;;;;5034762;28;20193;-86
2022/07/10 06:06:08;;;;;;;4.33;3.93;;;19.90;74.70;20.60;96959.00;;;;5040799;28;20701;-86
2022/07/10 06:08:35;;;;;;;3.70;3.50;;;19.90;74.70;20.60;96959.00;;;;5032197;28;20277;-85
2022/07/10 06:11:02;;;;;;;4.23;3.80;;;20.00;74.70;20.70;96953.00;;;;5024813;28;20287;-86
2022/07/10 06:13:29;;;;;;;4.13;3.83;;;20.00;74.60;20.70;96959.00;;;;5031925;28;20210;-86
2022/07/10 06:15:58;;;;;;;3.80;3.60;;;20.00;74.30;20.70;96952.00;;;;5043846;28;20198;-86
2022/07/10 06:18:25;;;;;;;3.90;3.70;;;20.10;74.00;20.70;96960.00;;;;5031791;28;20225;-86
2022/07/10 06:20:52;;;;;;;4.43;4.03;;;20.10;73.50;20.70;96958.00;;;;5032038;28;20252;-86
2022/07/10 06:23:20;;;;;;;4.40;4.10;;;20.10;73.30;20.70;96959.00;;;;5030450;28;20202;-85
2022/07/10 06:25:48;;;;;;;5.00;3.80;;;20.10;73.20;20.80;96952.00;;;;5035559;28;20225;-86
2022/07/10 06:28:17;;;;;;;4.30;4.00;;;20.20;73.30;20.80;96958.00;;;;5045367;28;20224;-85
2022/07/10 06:30:46;;;;;;;4.13;3.87;;;20.20;73.40;20.90;96965.00;;;;5030328;28;20209;-86
2022/07/10 06:33:15;;;;;;;4.20;3.90;;;20.20;73.40;20.90;96961.00;;;;5031369;28;20204;-86
2022/07/10 06:35:42;;;;;;;4.10;3.90;;;20.30;73.40;21.00;96965.00;;;;5027843;28;20201;-85
2022/07/10 06:38:10;;;;;;;4.50;4.20;;;20.30;73.10;21.00;96962.00;;;;5030196;28;20215;-86
2022/07/10 06:40:39;;;;;;;4.00;3.70;;;20.30;72.90;21.00;96965.00;;;;5029390;28;20243;-86
2022/07/10 06:43:06;;;;;;;4.20;3.90;;;20.40;72.70;21.10;96961.00;;;;5030102;28;20238;-86
2022/07/10 06:45:33;;;;;;;4.03;3.77;;;20.40;72.50;21.10;96955.00;;;;5029620;28;20210;-86
2022/07/10 06:48:00;;;;;;;4.47;4.20;;;20.40;72.50;21.20;96963.00;;;;5030804;28;20625;-86
2022/07/10 06:50:32;;;;;;;3.97;3.57;;;20.50;72.40;21.30;96978.00;;;;5037303;28;20198;-86
2022/07/10 06:52:59;;;;;;;4.17;3.93;;;20.50;72.20;21.40;96971.00;;;;5070978;22;20284;-87
2022/07/10 06:55:27;;;;;;;3.67;3.47;;;20.60;72.10;21.40;96974.00;;;;5070194;28;20681;-85
2022/07/10 06:57:55;;;;;;;4.03;3.73;;;20.60;71.70;21.50;96980.00;;;;5070859;28;20203;-86
2022/07/10 07:00:23;;;;;;;4.13;3.83;;;20.70;71.40;21.60;96977.00;;;;5071238;28;20270;-87
2022/07/10 07:02:50;;;;;;;3.80;3.50;;;20.70;71.30;21.60;96975.00;;;;5073301;28;20244;-87
2022/07/10 07:05:18;;;;;;;3.80;3.50;;;20.80;71.20;21.60;96979.00;;;;5075466;28;20219;-87
2022/07/10 07:07:47;;;;;;;3.87;3.67;;;20.80;71.10;21.60;96975.00;;;;5071289;28;20260;-87
2022/07/10 07:10:14;;;;;;;3.87;3.67;;;20.90;71.00;21.70;96981.00;;;;5074885;28;20275;-86
2022/07/10 07:12:41;;;;;;;3.70;3.50;;;20.90;70.80;21.70;96977.00;;;;5086949;28;20729;-87
2022/07/10 07:15:09;;;;;;;4.03;3.67;;;20.90;70.80;21.80;96984.00;;;;5069901;28;20195;-87
2022/07/10 07:17:56;;;;;;;3.60;3.40;;;21.00;70.70;21.90;96982.00;;;;5077026;28;20229;-88
2022/07/10 07:23:11;;;;;;;3.57;3.37;;;21.10;70.10;21.90;96987.00;;;;5081309;28;20238;-87
2022/07/10 07:25:41;;;;;;;3.63;3.43;;;21.10;70.00;21.90;96990.00;;;;5081772;28;20223;-86
2022/07/10 07:28:10;;;;;;;3.50;3.20;;;21.20;70.20;22.00;96998.00;;;;5078895;28;20199;-87
2022/07/10 07:30:37;;;;;;;3.60;3.30;;;21.20;70.10;22.10;97000.00;;;;5080014;28;20222;-86
2022/07/10 07:33:05;;;;;;;3.00;2.80;;;21.30;70.40;22.20;96998.00;;;;5091289;28;20567;-85
2022/07/10 07:35:32;;;;;;;3.13;2.87;;;21.30;69.80;22.20;96999.00;;;;5096855;28;20233;-86
2022/07/10 07:37:59;;;;;;;3.00;2.80;;;21.40;69.70;22.30;97003.00;;;;5065444;28;20312;-90
2022/07/10 07:40:28;;;;;;;2.90;2.70;;;21.40;69.60;22.30;96999.00;;;;5067980;28;20255;-88
2022/07/10 07:42:56;;;;;;;2.60;2.47;;;21.50;69.70;22.30;97004.00;;;;5076239;28;20294;-86
2022/07/10 07:45:24;;;;;;;2.67;2.57;;;21.50;69.30;22.40;97001.00;;;;5081226;28;20188;-88
2022/07/10 07:47:54;;;;;;;2.30;2.20;;;21.50;69.90;22.50;96999.00;;;;5076315;28;20656;-85
2022/07/10 07:50:25;;;;;;;2.07;1.97;;;21.60;70.30;22.70;97000.00;;;;5084973;28;20312;-85
2022/07/10 07:52:53;;;;;;;1.93;1.73;;;21.70;70.70;22.90;97001.00;;;;5086109;28;20245;-84
2022/07/10 07:55:21;;;;;;;2.00;1.90;;;21.80;70.00;23.10;97005.00;;;;5076529;28;20284;-87
2022/07/10 07:57:53;;;;;;;1.90;1.63;;;21.90;68.80;23.20;97013.00;;;;5078476;28;20223;-85
2022/07/10 08:00:22;;;;;;;2.47;1.60;;;22.10;68.00;23.20;97008.00;;;;5080154;28;20243;-84
2022/07/10 08:02:50;;;;;;;1.50;1.40;;;22.20;67.60;23.30;97019.00;;;;5091491;28;20226;-87
2022/07/10 08:05:18;;;;;;;2.07;1.87;;;22.30;67.30;23.40;97015.00;;;;5084436;28;20197;-86
2022/07/10 08:07:48;;;;;;;2.27;1.20;;;22.30;67.50;23.60;97001.00;;;;5087169;28;20242;-86
2022/07/10 08:10:19;;;;;;;1.30;1.20;;;22.50;66.90;23.60;97015.00;;;;5087869;28;20232;-84
2022/07/10 08:12:54;;;;;;;0.80;0.80;;;22.60;65.20;23.70;97013.00;;;;5095858;28;20237;-87
2022/07/10 08:15:34;;;;;;;1.00;0.90;;;22.70;65.20;23.80;97011.00;;;;5093713;28;20273;-85
2022/07/10 08:18:06;;;;;;;1.13;1.03;;;22.70;64.10;23.80;97021.00;;;;5068518;28;20544;-87
2022/07/10 08:20:35;;;;;;;1.40;0.90;;;22.70;64.00;23.70;97022.00;;;;5082153;28;20223;-91
2022/07/10 08:23:09;;;;;;;0.83;0.77;;;22.80;63.20;23.70;97027.00;;;;5071907;28;20224;-86
2022/07/10 08:25:39;;;;;;;1.33;0.80;;;22.80;63.20;23.70;97027.00;;;;5078551;28;20231;-86
2022/07/10 08:28:12;;;;;;;0.80;0.80;;;22.80;62.60;23.90;97018.00;;;;5076065;28;20196;-87
2022/07/10 08:30:42;;;;;;;0.83;0.83;;;22.90;62.70;24.00;97019.00;;;;5074331;28;20212;-87
2022/07/10 08:33:18;;;;;;;0.93;0.83;;;22.90;62.20;24.00;97018.00;;;;5076392;28;20192;-87
2022/07/10 08:35:48;;;;;;;2.07;0.87;;;23.00;61.60;24.10;97013.00;;;;5074088;28;20206;-87
2022/07/10 08:38:18;;;;;;;2.27;0.67;;;23.10;61.70;24.20;97017.00;;;;5068955;28;20209;-87
2022/07/10 08:40:53;;;;;;;1.77;0.90;;;23.10;61.70;24.40;97021.00;;;;5076062;28;20219;-86
2022/07/10 08:43:25;;;;;;;0.80;0.67;;;23.20;60.20;24.50;97020.00;;;;5089603;28;20221;-86
2022/07/10 08:45:54;;;;;;;0.60;0.60;;;23.30;60.10;24.50;97015.00;;;;5078994;28;20229;-86
2022/07/10 08:48:32;;;;;;;0.70;0.67;;;23.40;59.80;24.60;97026.00;;;;5087815;28;20203;-86
2022/07/10 08:51:09;;;;;;;1.60;0.93;;;23.50;59.20;24.80;97017.00;;;;5070347;28;20221;-86
2022/07/10 08:53:42;;;;;;;1.27;0.80;;;23.50;59.00;24.90;97011.00;;;;5085844;28;20581;-86
2022/07/10 08:56:12;;;;;;;0.97;0.87;;;23.60;58.90;25.00;97012.00;;;;5082982;28;20202;-87
2022/07/10 08:58:43;;;;;;;1.10;0.70;;;23.70;58.60;25.10;97009.00;;;;5073279;28;20201;-85
2022/07/10 09:01:12;;;;;;;1.73;0.70;;;23.80;58.10;25.20;97009.00;;;;5085524;28;20195;-85
2022/07/10 09:03:48;;;;;;;0.60;0.60;;;23.90;58.70;25.40;97007.00;;;;5073986;28;20782;-87
2022/07/10 09:06:21;;;;;;;0.80;0.60;;;24.00;58.30;25.50;97009.00;;;;5081332;28;20187;-88
2022/07/10 09:09:05;;;;;;;0.80;0.60;;;24.10;57.30;25.40;97010.00;;;;5059832;28;20303;-87
2022/07/10 09:11:34;;;;;;;0.90;0.70;;;24.20;56.60;25.40;97002.00;;;;5062722;28;20300;-88
2022/07/10 09:14:07;;;;;;;1.13;0.50;;;24.20;57.30;25.50;96997.00;;;;5073012;28;20229;-87
2022/07/10 09:16:39;;;;;;;1.20;0.77;;;24.30;56.50;25.60;97015.00;;;;5072510;28;20230;-87
2022/07/10 09:19:23;;;;;;;1.57;0.70;;;24.40;56.10;25.70;97002.00;;;;5085427;28;20227;-87
2022/07/10 09:21:55;;;;;;;1.33;0.70;;;24.50;55.10;25.70;97006.00;;;;5065506;28;20257;-88
2022/07/10 09:24:38;;;;;;;1.17;0.57;;;24.60;55.10;25.80;97007.00;;;;5056776;28;20202;-87
2022/07/10 09:27:15;;;;;;;1.40;0.70;;;24.60;55.30;25.90;97012.00;;;;5072461;28;20199;-88
2022/07/10 09:30:05;;;;;;;2.10;0.73;;;24.70;54.80;26.00;97016.00;;;;5072033;28;20211;-87
2022/07/10 09:32:42;;;;;;;1.10;1.00;;;24.80;54.80;25.90;97016.00;;;;5079057;28;20660;-87
2022/07/10 09:38:08;;;;;;;0.80;0.80;;;24.90;54.20;26.10;97011.00;;;;5035404;28;20196;-86
2022/07/10 09:40:43;;;;;;;1.00;0.60;;;24.90;54.40;26.20;97003.00;;;;5072688;28;20730;-87
2022/07/10 09:43:44;;;;;;;0.97;0.60;;;25.00;53.50;26.50;97019.00;;;;5072004;28;20207;-87
2022/07/10 09:46:16;;;;;;;1.07;0.60;;;25.10;54.30;26.80;97017.00;;;;5072386;28;20680;-86
2022/07/10 09:48:48;;;;;;;1.53;0.57;;;25.20;55.00;27.10;97008.00;;;;5082937;28;20219;-86
2022/07/10 09:51:20;;;;;;;0.57;0.50;;;25.40;54.70;27.30;97018.00;;;;5061955;28;20200;-86
2022/07/10 09:53:48;;;;;;;1.23;0.60;;;25.60;53.70;27.30;97019.00;;;;5085779;28;20200;-86
2022/07/10 09:56:15;;;;;;;1.47;0.60;;;25.70;52.90;27.40;97021.00;;;;5058421;28;20703;-86
2022/07/10 09:58:46;;;;;;;0.87;0.60;;;25.80;52.80;27.70;97010.00;;;;5074187;28;20247;-86
2022/07/10 10:01:18;;;;;;;1.20;0.57;;;26.00;53.00;28.00;97017.00;;;;5081402;28;20275;-86
2022/07/10 10:03:48;;;;;;;1.07;1.07;;;26.20;52.00;28.20;97014.00;;;;5074854;28;20235;-87
2022/07/10 10:06:20;;;;;;;0.93;0.60;;;26.30;51.90;28.30;97026.00;;;;5087154;28;20264;-87
2022/07/10 10:08:57;;;;;;;1.63;0.50;;;26.50;51.90;28.40;97016.00;;;;5073779;28;20220;-87
2022/07/10 10:11:28;;;;;;;0.77;0.50;;;26.70;50.40;28.50;97019.00;;;;5079640;28;20180;-87
2022/07/10 10:13:57;;;;;;;0.50;0.50;;;26.90;50.50;28.60;97015.00;;;;5054347;28;20696;-88
2022/07/10 10:16:28;;;;;;;0.70;0.40;;;27.00;50.70;28.80;97010.00;;;;5079919;28;20245;-88
2022/07/10 10:21:42;;;;;;;2.35;0.60;;;27.30;50.60;28.90;97032.00;;;;5080481;28;20207;-87
2022/07/10 10:24:09;;;;;;;0.77;0.50;;;27.40;49.60;28.80;97022.00;;;;5079636;28;20306;-87
2022/07/10 10:26:37;;;;;;;1.80;0.70;;;27.40;49.30;28.60;97027.00;;;;5072721;28;20196;-87
2022/07/10 10:29:07;;;;;;;1.40;0.63;;;27.50;48.40;28.40;97023.00;;;;5072221;28;20224;-86
2022/07/10 10:31:36;;;;;;;0.50;0.50;;;27.30;47.10;28.20;97026.00;;;;5070534;28;20195;-87
2022/07/10 10:34:04;;;;;;;1.40;0.63;;;27.30;48.00;28.00;97016.00;;;;5063188;28;20238;-88
2022/07/10 10:36:48;;;;;;;2.97;1.00;;;27.20;47.80;28.00;97019.00;;;;5073828;28;20231;-86
2022/07/10 10:39:18;;;;;;;1.40;0.60;;;27.20;47.40;27.90;97028.00;;;;5073173;28;20227;-87
2022/07/10 10:41:53;;;;;;;1.20;0.57;;;27.10;47.50;27.80;97029.00;;;;5079404;28;20192;-87
2022/07/10 10:44:35;;;;;;;0.50;0.50;;;27.10;47.50;27.70;97012.00;;;;5070331;28;20227;-86
2022/07/10 10:47:06;;;;;;;2.00;0.60;;;27.00;46.10;27.50;97013.00;;;;5051680;28;20577;-86
2022/07/10 10:50:43;;;;;;;0.90;0.50;;;26.90;46.90;27.40;97011.00;;;;5072012;28;20215;-86
2022/07/10 10:53:28;;;;;;;0.67;0.40;;;26.90;46.70;27.40;97004.00;;;;5079105;28;20200;-82
2022/07/10 10:56:45;;;;;;;0.70;0.30;;;26.80;47.10;27.50;97007.00;;;;5078920;28;20188;-83
2022/07/10 11:00:06;;;;;;;0.60;0.60;;;26.90;46.70;27.40;96999.00;;;;5073676;28;20219;-82
2022/07/10 11:03:09;;;;;;;1.80;0.50;;;26.90;45.10;27.20;97005.00;;;;5093172;28;20216;-82
2022/07/10 11:06:14;;;;;;;1.70;0.60;;;26.80;45.90;27.10;96997.00;;;;5071448;28;20211;-84
2022/07/10 11:08:44;;;;;;;0.70;0.50;;;26.60;44.80;27.00;96990.00;;;;5045704;28;20711;-83
2022/07/10 11:11:40;;;;;;;1.13;0.40;;;26.50;45.70;26.80;97003.00;;;;5078310;28;20214;-83
2022/07/10 11:14:10;;;;;;;0.63;0.40;;;26.40;44.70;26.70;97012.00;;;;5055388;28;20279;-83
2022/07/10 11:16:48;;;;;;;1.20;0.50;;;26.20;45.40;26.60;97003.00;;;;5052938;28;20582;-83